Time;durP1;ratioP1;P1;durP2;ratioP2;P2;SDS_P1;SDS_P2;PMS_P1;PMS_P2;Temp;Humidity;BMP_temperature;BMP_pressure;BME280_temperature;BME280_humidity;BME280_pressure;Samples;Min_cycle;Max_cycle;Signal;HPM_P1;HPM_P2
2022/11/12 00:00:49;;;;;;;6.80;4.57;;;5.20;99.90;5.00;102180.00;;;;4878148;28;123077;-63
2022/11/12 00:03:15;;;;;;;7.43;5.57;;;5.20;99.90;5.00;102171.00;;;;4879336;28;93452;-64
2022/11/12 00:05:41;;;;;;;5.10;3.53;;;5.20;99.90;5.00;102168.00;;;;4879328;28;92242;-63
2022/11/12 00:08:06;;;;;;;5.27;3.50;;;5.20;99.90;5.00;102182.00;;;;4876677;28;107645;-64
2022/11/12 00:10:32;;;;;;;4.33;3.07;;;5.20;99.90;4.90;102168.00;;;;4881318;28;121975;-64
2022/11/12 00:12:58;;;;;;;4.43;3.07;;;5.20;99.90;4.90;102164.00;;;;4879958;28;119503;-64
2022/11/12 00:15:25;;;;;;;5.60;3.30;;;5.20;99.90;4.90;102188.00;;;;4882305;28;92606;-63
2022/11/12 00:17:51;;;;;;;4.70;2.53;;;5.20;99.90;4.90;102183.00;;;;4881333;28;93023;-63
2022/11/12 00:20:17;;;;;;;4.93;2.10;;;5.10;99.90;4.90;102174.00;;;;4879370;28;117973;-63
2022/11/12 00:22:42;;;;;;;4.13;2.63;;;5.10;99.90;4.90;102177.00;;;;4879543;28;111542;-63
2022/11/12 00:25:08;;;;;;;3.20;2.87;;;5.10;99.90;4.90;102176.00;;;;4880859;28;92888;-64
2022/11/12 00:27:34;;;;;;;2.77;2.17;;;5.00;99.90;4.90;102181.00;;;;4880776;28;92858;-63
2022/11/12 00:30:00;;;;;;;5.30;2.70;;;5.10;99.90;4.80;102168.00;;;;4879663;28;107426;-63
2022/11/12 00:32:26;;;;;;;3.50;2.47;;;5.10;99.90;4.80;102178.00;;;;4881118;28;112399;-64
2022/11/12 00:34:51;;;;;;;4.77;3.53;;;5.00;99.90;4.80;102169.00;;;;4879387;28;92908;-64
2022/11/12 00:37:17;;;;;;;5.00;2.30;;;5.00;99.90;4.80;102175.00;;;;4879695;28;108163;-64
2022/11/12 00:39:44;;;;;;;5.27;2.03;;;5.00;99.90;4.70;102177.00;;;;4880247;28;93756;-64
2022/11/12 00:42:09;;;;;;;2.37;2.07;;;4.90;99.90;4.70;102183.00;;;;4882966;28;93120;-64
2022/11/12 00:44:35;;;;;;;6.03;2.83;;;4.90;99.90;4.70;102179.00;;;;4880848;28;110280;-65
2022/11/12 00:47:01;;;;;;;4.87;3.00;;;4.90;99.90;4.60;102176.00;;;;4876642;28;107977;-64
2022/11/12 00:49:26;;;;;;;2.87;2.67;;;4.90;99.90;4.60;102172.00;;;;4875981;28;123022;-63
2022/11/12 00:51:52;;;;;;;7.87;2.80;;;4.90;99.90;4.60;102171.00;;;;4880170;28;122917;-65
2022/11/12 00:54:18;;;;;;;4.57;3.07;;;4.80;99.90;4.60;102178.00;;;;4880841;28;109984;-65
2022/11/12 00:56:46;;;;;;;2.23;2.00;;;4.80;99.90;4.60;102184.00;;;;4879138;28;96194;-63
2022/11/12 00:59:12;;;;;;;2.87;2.17;;;5.20;99.90;4.50;102184.00;;;;4875985;28;93419;-63
2022/11/12 01:01:38;;;;;;;2.33;1.83;;;4.80;99.90;4.50;102170.00;;;;4879362;28;93956;-63
2022/11/12 01:04:04;;;;;;;3.80;2.33;;;4.70;99.90;4.50;102175.00;;;;4878209;28;92881;-64
2022/11/12 01:06:30;;;;;;;2.37;2.17;;;5.30;99.90;4.40;102179.00;;;;4878226;28;101893;-63
2022/11/12 01:08:56;;;;;;;3.17;2.90;;;4.70;99.90;4.40;102177.00;;;;4876493;28;93660;-63
2022/11/12 01:11:26;;;;;;;3.37;3.07;;;4.60;99.90;4.40;102175.00;;;;4878987;28;93171;-63
2022/11/12 01:14:01;;;;;;;4.93;2.80;;;4.60;99.90;4.40;102172.00;;;;4877483;28;92783;-63
2022/11/12 01:16:31;;;;;;;4.70;3.17;;;4.60;99.90;4.30;102171.00;;;;4875777;28;92830;-64
2022/11/12 01:19:00;;;;;;;2.83;2.33;;;5.10;99.90;4.30;102174.00;;;;4875408;28;111125;-63
2022/11/12 01:21:28;;;;;;;3.87;2.93;;;4.60;99.90;4.30;102160.00;;;;4876551;28;92950;-62
2022/11/12 01:23:57;;;;;;;2.87;2.63;;;4.50;99.90;4.30;102169.00;;;;4878864;28;92841;-63
2022/11/12 01:26:23;;;;;;;4.13;2.70;;;4.50;99.90;4.20;102169.00;;;;4877783;28;94150;-63
2022/11/12 01:28:49;;;;;;;4.27;3.00;;;4.50;99.90;4.20;102162.00;;;;4879490;28;93319;-61
2022/11/12 01:31:22;;;;;;;3.37;1.77;;;4.40;99.90;4.20;102152.00;;;;4877241;28;93420;-63
2022/11/12 01:33:53;;;;;;;3.87;2.67;;;4.40;99.90;4.20;102153.00;;;;4878752;28;92641;-62
2022/11/12 01:36:19;;;;;;;2.73;2.53;;;4.40;99.90;4.10;102149.00;;;;4878724;28;92949;-63
2022/11/12 01:38:46;;;;;;;4.33;3.30;;;4.40;99.90;4.10;102155.00;;;;4881575;28;93521;-63
2022/11/12 01:41:22;;;;;;;5.17;3.07;;;4.30;99.90;4.10;102151.00;;;;4878101;28;101620;-63
2022/11/12 01:44:10;;;;;;;3.83;2.57;;;4.30;99.90;4.00;102148.00;;;;4882134;28;92291;-63
2022/11/12 01:46:50;;;;;;;4.73;2.80;;;4.30;99.90;4.00;102149.00;;;;4879673;28;93971;-62
2022/11/12 01:49:55;;;;;;;2.87;2.17;;;4.30;99.90;4.00;102142.00;;;;4876983;28;93308;-63
2022/11/12 01:52:31;;;;;;;3.73;2.60;;;4.30;99.90;4.00;102144.00;;;;4876292;28;93899;-62
2022/11/12 01:55:04;;;;;;;3.70;2.67;;;4.20;99.90;3.90;102139.00;;;;4879131;28;92989;-64
2022/11/12 01:57:38;;;;;;;4.27;2.50;;;4.20;99.90;3.90;102145.00;;;;4881413;28;92853;-63
2022/11/12 02:00:09;;;;;;;3.53;2.70;;;4.20;99.90;3.90;102139.00;;;;4877001;28;93229;-63
2022/11/12 02:02:36;;;;;;;4.47;2.97;;;4.20;99.90;3.90;102136.00;;;;4875579;28;93255;-63
2022/11/12 02:05:05;;;;;;;2.87;2.30;;;4.20;99.90;3.90;102142.00;;;;4881585;28;93000;-62
2022/11/12 02:07:32;;;;;;;3.97;2.53;;;4.10;99.90;3.80;102149.00;;;;4876229;28;94156;-62
2022/11/12 02:10:00;;;;;;;4.10;2.80;;;4.10;99.90;3.80;102142.00;;;;4874476;28;122435;-62
2022/11/12 02:15:10;;;;;;;3.47;2.37;;;4.10;99.90;3.70;102126.00;;;;4884521;28;92754;-63
2022/11/12 02:17:35;;;;;;;2.50;1.97;;;3.90;99.90;3.70;102146.00;;;;4874543;28;109348;-63
2022/11/12 02:20:02;;;;;;;4.30;2.63;;;4.00;99.90;3.70;102138.00;;;;4874809;28;122248;-63
2022/11/12 02:22:27;;;;;;;5.67;3.17;;;3.90;99.90;3.70;102145.00;;;;4876217;28;93280;-64
2022/11/12 02:24:53;;;;;;;4.07;2.03;;;3.90;99.90;3.70;102148.00;;;;4879123;28;93301;-63
2022/11/12 02:27:20;;;;;;;6.63;2.70;;;3.90;99.90;3.70;102151.00;;;;4875602;28;108423;-62
2022/11/12 02:29:45;;;;;;;2.47;1.83;;;3.90;99.90;3.60;102158.00;;;;4875622;28;93230;-62
2022/11/12 02:32:12;;;;;;;3.23;1.93;;;3.90;99.90;3.60;102154.00;;;;4871581;28;122231;-64
2022/11/12 02:34:38;;;;;;;4.30;2.77;;;3.90;99.90;3.60;102166.00;;;;4879204;28;94835;-63
2022/11/12 02:37:05;;;;;;;2.17;1.97;;;3.90;99.90;3.60;102159.00;;;;4877175;28;93697;-64
2022/11/12 02:39:31;;;;;;;4.57;2.93;;;4.30;99.90;3.60;102157.00;;;;4876938;28;116274;-61
2022/11/12 02:41:56;;;;;;;2.90;2.03;;;3.80;99.90;3.60;102175.00;;;;4874758;28;114158;-62
2022/11/12 02:44:22;;;;;;;4.50;3.13;;;3.80;99.90;3.60;102166.00;;;;4873674;28;108282;-62
2022/11/12 02:46:48;;;;;;;5.13;2.13;;;3.80;99.90;3.50;102169.00;;;;4873311;28;92917;-63
2022/11/12 02:49:13;;;;;;;3.47;2.67;;;3.80;99.90;3.50;102166.00;;;;4876190;28;122896;-60
2022/11/12 02:51:39;;;;;;;3.93;2.83;;;3.80;99.90;3.40;102173.00;;;;4876347;28;122484;-63
2022/11/12 02:54:05;;;;;;;2.93;2.73;;;3.70;99.90;3.40;102170.00;;;;4877802;28;111000;-62
2022/11/12 02:56:31;;;;;;;4.93;2.93;;;3.70;99.90;3.40;102167.00;;;;4875835;28;108955;-62
2022/11/12 02:58:56;;;;;;;2.47;2.27;;;3.70;99.90;3.40;102180.00;;;;4877855;28;112544;-63
2022/11/12 03:01:22;;;;;;;2.60;1.90;;;3.60;99.90;3.30;102186.00;;;;4877310;28;121956;-63
2022/11/12 03:03:48;;;;;;;2.90;2.60;;;3.60;99.90;3.30;102186.00;;;;4874758;28;109962;-62
2022/11/12 03:06:13;;;;;;;4.37;2.47;;;3.60;99.90;3.30;102184.00;;;;4877996;28;94006;-62
2022/11/12 03:08:39;;;;;;;5.50;2.60;;;3.60;99.90;3.20;102191.00;;;;4878206;28;122287;-61
2022/11/12 03:11:07;;;;;;;3.73;2.50;;;3.50;99.90;3.20;102179.00;;;;4878858;28;123553;-63
2022/11/12 03:13:33;;;;;;;2.83;2.33;;;3.50;99.90;3.20;102182.00;;;;4876096;28;92926;-62
2022/11/12 03:16:02;;;;;;;6.50;2.63;;;3.50;99.90;3.20;102191.00;;;;4874681;28;109195;-62
2022/11/12 03:18:28;;;;;;;2.33;2.17;;;3.50;99.90;3.20;102181.00;;;;4881105;28;122799;-61
2022/11/12 03:20:54;;;;;;;3.77;1.93;;;3.40;99.90;3.20;102186.00;;;;4876792;28;92902;-63
2022/11/12 03:23:19;;;;;;;5.00;2.80;;;3.40;99.90;3.10;102187.00;;;;4874824;28;108176;-64
2022/11/12 03:25:45;;;;;;;4.50;2.80;;;3.40;99.90;3.10;102193.00;;;;4877577;28;108303;-63
2022/11/12 03:28:14;;;;;;;4.13;3.20;;;3.40;99.90;3.10;102211.00;;;;4878950;28;122288;-63
2022/11/12 03:30:42;;;;;;;3.60;2.43;;;3.40;99.90;3.10;102201.00;;;;4877680;28;93766;-62
2022/11/12 03:33:11;;;;;;;3.10;2.17;;;3.30;99.90;3.00;102205.00;;;;4879013;28;92891;-63
2022/11/12 03:35:37;;;;;;;5.27;2.83;;;3.30;99.90;3.00;102200.00;;;;4876551;28;92767;-63
2022/11/12 03:38:04;;;;;;;4.07;2.37;;;3.20;99.90;3.00;102210.00;;;;4882866;28;93425;-63
2022/11/12 03:40:31;;;;;;;3.20;1.73;;;3.20;99.90;2.90;102205.00;;;;4875575;28;94181;-62
2022/11/12 03:42:57;;;;;;;5.43;2.93;;;3.20;99.90;2.90;102208.00;;;;4878576;28;94339;-63
2022/11/12 03:45:25;;;;;;;3.73;2.43;;;3.20;99.90;2.90;102205.00;;;;4875457;28;98792;-63
2022/11/12 03:47:55;;;;;;;2.93;2.43;;;3.10;99.90;2.80;102207.00;;;;4884784;28;106107;-64
2022/11/12 03:50:24;;;;;;;2.30;1.97;;;3.10;99.90;2.80;102206.00;;;;4874726;28;92818;-61
2022/11/12 03:52:54;;;;;;;2.80;2.03;;;3.10;99.90;2.80;102203.00;;;;4880776;28;92876;-62
2022/11/12 03:55:21;;;;;;;2.27;2.07;;;3.10;99.90;2.70;102205.00;;;;4876439;28;94035;-62
2022/11/12 03:57:50;;;;;;;3.70;2.23;;;3.00;99.90;2.70;102211.00;;;;4878777;28;93524;-63
2022/11/12 04:00:17;;;;;;;2.83;2.23;;;3.30;99.90;2.70;102201.00;;;;4880699;28;92845;-62
2022/11/12 04:02:43;;;;;;;3.57;2.47;;;3.00;99.90;2.70;102200.00;;;;4877288;28;94817;-62
2022/11/12 04:10:51;;;;;;;3.07;2.73;;;2.90;99.90;2.60;102207.00;;;;4877776;28;93134;-63
2022/11/12 04:13:29;;;;;;;5.37;3.40;;;2.90;99.90;2.60;102201.00;;;;4880272;28;92253;-61
2022/11/12 04:21:55;;;;;;;3.73;3.27;;;2.80;99.90;2.40;102195.00;;;;4878375;28;93749;-61
2022/11/12 04:27:25;;;;;;;3.00;2.50;;;2.70;99.90;2.30;102182.00;;;;4877825;28;92789;-62
2022/11/12 04:32:39;;;;;;;5.60;2.67;;;2.70;99.90;2.30;102190.00;;;;4877111;28;93006;-62
2022/11/12 04:35:07;;;;;;;4.00;2.47;;;2.60;99.90;2.30;102181.00;;;;4877891;28;92961;-63
2022/11/12 04:37:44;;;;;;;3.07;2.67;;;2.70;99.90;2.20;102181.00;;;;4877153;28;99238;-62
2022/11/12 04:45:53;;;;;;;2.23;2.03;;;2.50;99.90;2.10;102194.00;;;;4881724;28;93072;-63
2022/11/12 04:48:21;;;;;;;3.23;2.93;;;2.40;99.90;2.10;102198.00;;;;4878745;28;103543;-62
2022/11/12 04:51:00;;;;;;;2.83;2.43;;;2.40;99.90;2.00;102193.00;;;;4881417;28;93512;-64
2022/11/12 04:53:27;;;;;;;4.80;3.50;;;2.40;99.90;2.00;102185.00;;;;4878622;28;93079;-63
2022/11/12 04:55:56;;;;;;;3.70;2.70;;;2.30;99.90;2.00;102191.00;;;;4883576;28;92952;-64
2022/11/12 04:58:22;;;;;;;4.20;2.37;;;2.30;99.90;2.00;102184.00;;;;4878471;28;101375;-63
2022/11/12 05:00:49;;;;;;;2.27;2.03;;;2.30;99.90;2.00;102176.00;;;;4884052;28;93070;-63
2022/11/12 05:03:16;;;;;;;7.97;3.23;;;2.20;99.90;2.00;102178.00;;;;4877320;28;117145;-64
2022/11/12 05:05:42;;;;;;;2.83;2.63;;;2.30;99.90;2.00;102178.00;;;;4877417;28;92240;-63
2022/11/12 05:08:07;;;;;;;4.00;2.70;;;2.30;99.90;1.90;102180.00;;;;4876116;28;103796;-63
2022/11/12 05:10:33;;;;;;;3.60;2.33;;;2.30;99.90;1.90;102176.00;;;;4882786;28;120971;-62
2022/11/12 05:12:59;;;;;;;3.30;2.50;;;2.30;99.90;1.90;102177.00;;;;4881169;28;115316;-62
2022/11/12 05:15:25;;;;;;;3.70;2.40;;;2.20;99.90;1.90;102175.00;;;;4890356;28;94537;-62
2022/11/12 05:17:51;;;;;;;3.03;2.57;;;2.20;99.90;1.90;102176.00;;;;4875990;28;109593;-60
2022/11/12 05:20:17;;;;;;;3.93;3.07;;;2.20;99.90;1.80;102181.00;;;;4878547;28;115989;-61
2022/11/12 05:22:43;;;;;;;3.57;1.67;;;2.10;99.90;1.80;102185.00;;;;4875554;28;108492;-64
2022/11/12 05:25:08;;;;;;;2.07;1.60;;;2.20;99.90;1.80;102191.00;;;;4875245;28;111303;-62
2022/11/12 05:27:35;;;;;;;2.83;2.20;;;2.10;99.90;1.80;102186.00;;;;4876551;28;108817;-61
2022/11/12 05:30:01;;;;;;;3.53;2.77;;;2.10;99.90;1.80;102187.00;;;;4876935;28;102044;-62
2022/11/12 05:32:27;;;;;;;3.47;3.10;;;2.10;99.90;1.70;102191.00;;;;4875080;28;93140;-63
2022/11/12 05:34:53;;;;;;;6.47;2.77;;;2.00;99.90;1.70;102192.00;;;;4876554;28;111362;-61
2022/11/12 05:37:18;;;;;;;2.77;2.20;;;2.00;99.90;1.70;102192.00;;;;4878500;28;108231;-63
2022/11/12 05:39:44;;;;;;;5.30;3.07;;;2.10;99.90;1.70;102195.00;;;;4877768;28;123559;-62
2022/11/12 05:42:10;;;;;;;4.63;3.50;;;2.10;99.90;1.70;102191.00;;;;4879351;28;123161;-61
2022/11/12 05:44:35;;;;;;;4.23;2.80;;;2.00;99.90;1.70;102194.00;;;;4877885;28;93174;-62
2022/11/12 05:47:01;;;;;;;3.03;2.63;;;2.00;99.90;1.70;102206.00;;;;4873903;28;108796;-63
2022/11/12 05:49:27;;;;;;;3.97;3.57;;;2.00;99.90;1.70;102196.00;;;;4890327;28;122157;-63
2022/11/12 05:51:52;;;;;;;4.10;2.83;;;2.00;99.90;1.70;102200.00;;;;4875863;28;123671;-63
2022/11/12 05:54:18;;;;;;;4.87;3.23;;;2.00;99.90;1.70;102206.00;;;;4876830;28;108753;-63
2022/11/12 05:56:44;;;;;;;4.80;2.93;;;2.00;99.90;1.70;102208.00;;;;4878046;28;107924;-63
2022/11/12 05:59:12;;;;;;;3.00;2.50;;;2.30;99.90;1.60;102212.00;;;;4875939;28;94071;-62
2022/11/12 06:01:45;;;;;;;3.63;3.00;;;2.00;99.90;1.70;102206.00;;;;4871332;28;94273;-62
2022/11/12 06:04:13;;;;;;;2.20;1.87;;;2.00;99.90;1.60;102204.00;;;;4877439;28;93167;-62
2022/11/12 06:06:40;;;;;;;5.20;2.67;;;2.00;99.90;1.60;102200.00;;;;4873971;28;92774;-63
2022/11/12 06:09:07;;;;;;;4.67;2.73;;;1.90;99.90;1.60;102211.00;;;;4875409;28;97740;-63
2022/11/12 06:11:33;;;;;;;3.50;2.13;;;1.90;99.90;1.60;102218.00;;;;4873656;28;117620;-64
2022/11/12 06:14:00;;;;;;;4.67;2.73;;;1.90;99.90;1.60;102223.00;;;;4874719;28;93700;-63
2022/11/12 06:16:26;;;;;;;3.67;2.97;;;1.90;99.90;1.60;102220.00;;;;4879713;28;93093;-60
2022/11/12 06:18:52;;;;;;;2.90;2.63;;;1.90;99.90;1.60;102220.00;;;;4877946;28;99213;-63
2022/11/12 06:21:21;;;;;;;4.73;3.40;;;2.00;99.90;1.60;102224.00;;;;4871433;28;122029;-63
2022/11/12 06:23:56;;;;;;;3.53;3.10;;;1.90;99.90;1.60;102225.00;;;;4876248;28;93251;-64
2022/11/12 06:26:24;;;;;;;10.73;3.83;;;1.90;99.90;1.60;102217.00;;;;4875680;28;93967;-64
2022/11/12 06:28:50;;;;;;;4.93;3.47;;;1.90;99.90;1.50;102224.00;;;;4877738;28;93723;-63
2022/11/12 06:31:17;;;;;;;21.67;11.53;;;1.90;99.90;1.50;102222.00;;;;4871913;28;93629;-62
2022/11/12 06:33:44;;;;;;;6.07;5.10;;;1.90;99.90;1.60;102224.00;;;;4875425;28;92954;-62
2022/11/12 06:36:12;;;;;;;4.40;3.63;;;1.80;99.90;1.60;102218.00;;;;4874451;28;93236;-64
2022/11/12 06:38:39;;;;;;;8.13;5.77;;;1.80;99.90;1.60;102224.00;;;;4876179;28;93318;-63
2022/11/12 06:41:07;;;;;;;10.47;6.67;;;1.90;99.90;1.50;102219.00;;;;4870816;28;93022;-64
2022/11/12 06:43:34;;;;;;;7.43;4.90;;;1.90;99.90;1.60;102227.00;;;;4874349;28;92159;-63
2022/11/12 06:46:10;;;;;;;7.77;4.93;;;1.90;99.90;1.60;102221.00;;;;4870744;28;92792;-64
2022/11/12 06:48:35;;;;;;;6.63;5.93;;;1.90;99.90;1.70;102228.00;;;;4871097;28;112674;-63
2022/11/12 06:51:17;;;;;;;7.97;4.93;;;2.00;99.90;1.80;102223.00;;;;4870353;28;110944;-61
2022/11/12 06:53:43;;;;;;;8.67;4.70;;;2.10;99.90;2.00;102237.00;;;;4873663;28;92718;-61
2022/11/12 06:56:09;;;;;;;7.83;4.47;;;2.20;99.90;2.10;102237.00;;;;4872494;28;93198;-61
2022/11/12 06:58:36;;;;;;;7.50;5.13;;;2.40;99.90;2.30;102221.00;;;;4873167;28;120809;-64
2022/11/12 07:01:13;;;;;;;6.97;4.07;;;2.50;99.90;2.40;102236.00;;;;4873478;28;94053;-63
2022/11/12 07:03:40;;;;;;;5.13;4.03;;;2.60;99.90;2.50;102247.00;;;;4870277;28;94137;-63
2022/11/12 07:06:12;;;;;;;8.37;5.07;;;2.70;99.90;2.60;102238.00;;;;4874313;28;92799;-63
2022/11/12 07:08:39;;;;;;;6.43;3.87;;;2.90;99.90;2.70;102241.00;;;;4871711;28;94688;-62
2022/11/12 07:11:06;;;;;;;6.67;4.90;;;3.00;99.90;2.80;102244.00;;;;4878806;28;93080;-63
2022/11/12 07:13:34;;;;;;;5.87;4.47;;;3.00;99.90;2.80;102241.00;;;;4872968;28;92823;-63
2022/11/12 07:16:01;;;;;;;4.03;3.33;;;3.10;99.90;2.90;102252.00;;;;4872348;28;93858;-63
2022/11/12 07:18:27;;;;;;;3.67;2.70;;;3.20;99.90;3.00;102242.00;;;;4876561;28;93292;-62
2022/11/12 07:21:02;;;;;;;4.03;3.13;;;3.20;99.90;3.20;102246.00;;;;4878607;28;93079;-63
2022/11/12 07:23:31;;;;;;;3.83;2.80;;;3.30;99.90;3.30;102246.00;;;;4873313;28;93059;-63
2022/11/12 07:26:06;;;;;;;4.03;3.47;;;3.50;99.90;3.40;102246.00;;;;4880628;28;92823;-63
2022/11/12 07:28:32;;;;;;;5.60;3.13;;;3.60;99.90;3.60;102248.00;;;;4879354;28;93202;-63
2022/11/12 07:31:04;;;;;;;5.97;5.10;;;3.70;99.90;3.80;102247.00;;;;4875751;28;110676;-63
2022/11/12 07:33:31;;;;;;;5.67;4.07;;;4.00;99.90;4.00;102240.00;;;;4878667;28;92277;-63
2022/11/12 07:36:06;;;;;;;5.63;3.70;;;4.10;99.90;4.10;102254.00;;;;4879066;28;92829;-63
2022/11/12 07:38:35;;;;;;;5.83;3.80;;;4.30;99.90;4.30;102252.00;;;;4882936;28;100474;-63
2022/11/12 07:41:08;;;;;;;6.50;5.20;;;4.50;99.90;4.40;102247.00;;;;4874111;28;115331;-65
2022/11/12 07:43:36;;;;;;;6.23;4.93;;;4.80;99.90;4.50;102247.00;;;;4873043;28;93109;-64
2022/11/12 07:46:06;;;;;;;7.27;4.93;;;4.70;99.90;4.60;102249.00;;;;4877707;28;93004;-64
2022/11/12 07:48:32;;;;;;;6.67;4.17;;;4.80;99.90;4.80;102260.00;;;;4878538;28;117661;-64
2022/11/12 07:51:13;;;;;;;6.07;4.70;;;4.90;99.90;5.00;102251.00;;;;4876722;28;121617;-64
2022/11/12 07:53:39;;;;;;;5.70;4.90;;;5.10;99.90;5.30;102254.00;;;;4877923;28;93037;-64
2022/11/12 07:56:05;;;;;;;7.43;5.47;;;5.40;99.90;5.60;102246.00;;;;4880416;28;92861;-64
2022/11/12 07:58:33;;;;;;;10.33;5.73;;;5.70;99.90;5.90;102261.00;;;;4879818;28;98165;-63
2022/11/12 08:01:22;;;;;;;6.97;4.67;;;6.00;99.90;6.30;102266.00;;;;4874036;28;93112;-63
2022/11/12 08:03:47;;;;;;;7.97;5.37;;;6.30;99.90;6.60;102273.00;;;;4871985;28;94852;-63
2022/11/12 08:06:13;;;;;;;11.50;7.37;;;6.60;99.90;7.00;102280.00;;;;4874702;28;109811;-63
2022/11/12 08:08:39;;;;;;;11.77;8.83;;;7.00;99.90;7.40;102280.00;;;;4888656;28;121862;-64
2022/11/12 08:11:04;;;;;;;10.47;7.80;;;7.70;99.90;7.80;102276.00;;;;4876113;28;121852;-65
2022/11/12 08:13:30;;;;;;;6.93;5.67;;;7.70;99.90;8.10;102279.00;;;;4874076;28;109437;-64
2022/11/12 08:15:57;;;;;;;9.67;7.40;;;8.00;99.90;8.50;102275.00;;;;4873576;28;94806;-64
2022/11/12 08:18:24;;;;;;;14.43;8.30;;;8.40;99.90;8.80;102275.00;;;;4875651;28;93515;-64
2022/11/12 08:20:50;;;;;;;10.17;6.67;;;9.00;99.90;9.20;102284.00;;;;4875103;28;116608;-63
2022/11/12 08:23:15;;;;;;;10.23;6.07;;;9.40;99.90;9.50;102280.00;;;;4880064;28;110091;-64
2022/11/12 08:25:41;;;;;;;11.57;6.30;;;9.40;99.90;9.70;102280.00;;;;4889164;28;109222;-65
2022/11/12 08:28:07;;;;;;;9.73;6.60;;;9.60;99.90;9.90;102277.00;;;;4877405;28;122969;-65
2022/11/12 08:30:33;;;;;;;8.90;6.13;;;9.90;99.90;10.20;102270.00;;;;4874643;28;122110;-64
2022/11/12 08:33:02;;;;;;;13.67;6.17;;;10.10;99.90;10.40;102283.00;;;;4876810;28;92803;-65
2022/11/12 08:35:29;;;;;;;11.13;6.23;;;10.30;99.90;10.60;102274.00;;;;4874664;28;93088;-63
2022/11/12 08:38:06;;;;;;;6.23;5.03;;;10.60;99.90;10.80;102279.00;;;;4877735;28;94077;-63
2022/11/12 08:40:32;;;;;;;5.83;4.33;;;10.80;99.90;11.10;102284.00;;;;4877729;28;93339;-64
2022/11/12 08:43:03;;;;;;;10.57;5.83;;;11.00;99.90;11.40;102277.00;;;;4883096;28;109831;-66
2022/11/12 08:45:32;;;;;;;12.03;6.83;;;11.30;99.90;11.70;102284.00;;;;4891475;28;92974;-64
2022/11/12 08:48:00;;;;;;;9.20;5.60;;;11.50;99.90;12.00;102293.00;;;;4878616;28;92357;-64
2022/11/12 08:50:27;;;;;;;8.17;4.63;;;11.80;99.90;12.20;102291.00;;;;4877306;28;94297;-65
2022/11/12 08:52:58;;;;;;;6.97;4.37;;;12.10;99.90;12.60;102302.00;;;;4872572;28;93198;-64
2022/11/12 08:55:24;;;;;;;7.93;4.53;;;12.40;99.90;12.80;102309.00;;;;4880743;28;94778;-64
2022/11/12 08:57:49;;;;;;;5.60;4.30;;;12.60;99.90;13.10;102300.00;;;;4871574;28;122113;-63
2022/11/12 09:00:16;;;;;;;5.53;3.87;;;12.90;99.90;13.30;102296.00;;;;4876044;28;121751;-64
2022/11/12 09:02:41;;;;;;;5.77;4.80;;;13.10;99.90;13.50;102304.00;;;;4882027;28;105058;-64
2022/11/12 09:05:07;;;;;;;8.53;5.20;;;13.30;99.90;13.70;102303.00;;;;4875993;28;108896;-64
2022/11/12 09:07:33;;;;;;;3.97;3.27;;;13.50;99.90;13.90;102296.00;;;;4873616;28;93315;-64
2022/11/12 09:09:59;;;;;;;4.77;4.00;;;13.70;99.90;14.10;102293.00;;;;4877205;28;122308;-64
2022/11/12 09:12:26;;;;;;;5.53;3.80;;;13.90;99.90;14.20;102296.00;;;;4876452;28;92486;-63
2022/11/12 09:14:51;;;;;;;6.73;4.03;;;14.00;99.90;14.20;102299.00;;;;4873988;28;102083;-64
2022/11/12 09:17:17;;;;;;;7.27;4.17;;;14.10;99.90;14.20;102298.00;;;;4872658;28;123174;-64
2022/11/12 09:19:43;;;;;;;6.53;4.40;;;14.10;99.90;14.40;102307.00;;;;4875721;28;100057;-64
2022/11/12 09:22:08;;;;;;;5.30;3.00;;;14.30;99.90;14.60;102308.00;;;;4876118;28;94336;-65
2022/11/12 09:24:34;;;;;;;5.80;3.27;;;14.40;99.90;14.80;102312.00;;;;4878831;28;109808;-66
2022/11/12 09:27:00;;;;;;;4.00;3.00;;;14.60;99.90;15.00;102311.00;;;;4871270;28;122992;-63
2022/11/12 09:29:25;;;;;;;5.77;2.87;;;14.80;99.80;15.20;102316.00;;;;4872282;28;122158;-64
2022/11/12 09:31:51;;;;;;;4.60;3.23;;;15.00;99.00;15.40;102314.00;;;;4872572;28;108452;-64
2022/11/12 09:34:16;;;;;;;4.37;2.67;;;15.20;98.30;15.60;102307.00;;;;4877706;28;106853;-64
2022/11/12 09:36:42;;;;;;;4.17;2.97;;;15.30;97.80;15.90;102328.00;;;;4872963;28;122745;-65
2022/11/12 09:39:08;;;;;;;4.47;3.00;;;15.60;97.60;16.20;102320.00;;;;4873828;28;119137;-63
2022/11/12 09:41:37;;;;;;;3.13;2.30;;;15.90;96.90;16.40;102321.00;;;;4874127;28;109806;-65
2022/11/12 09:44:16;;;;;;;4.82;3.03;;;16.10;95.50;16.50;102328.00;;;;4877505;28;102679;-63
2022/11/12 09:46:51;;;;;;;4.70;2.70;;;16.20;94.90;16.70;102328.00;;;;4876602;28;94174;-63
2022/11/12 09:49:39;;;;;;;3.42;2.45;;;16.40;93.80;16.80;102319.00;;;;4888538;28;111474;-63
2022/11/12 09:52:24;;;;;;;4.28;2.53;;;16.50;93.00;16.90;102317.00;;;;4872732;28;93219;-64
2022/11/12 09:55:01;;;;;;;3.22;2.47;;;16.70;92.60;17.10;102325.00;;;;4889295;28;93436;-65
2022/11/12 09:57:26;;;;;;;4.57;3.00;;;16.80;92.30;17.40;102307.00;;;;4888819;28;119295;-64
2022/11/12 09:59:52;;;;;;;3.95;2.65;;;17.00;91.80;17.50;102330.00;;;;4872695;28;122104;-65
2022/11/12 10:02:32;;;;;;;2.78;2.13;;;17.20;91.10;17.70;102317.00;;;;4880661;28;109992;-65
2022/11/12 10:05:34;;;;;;;4.43;2.78;;;17.40;90.10;17.90;102308.00;;;;4877410;28;92866;-62
2022/11/12 10:08:33;;;;;;;2.25;2.05;;;17.50;89.30;18.10;102318.00;;;;4876419;28;92802;-65
2022/11/12 10:11:22;;;;;;;3.53;2.20;;;17.70;88.50;18.30;102300.00;;;;4865703;28;119428;-64
2022/11/12 10:14:01;;;;;;;4.03;2.72;;;17.90;88.00;18.60;102307.00;;;;4891921;28;105542;-65
2022/11/12 10:16:49;;;;;;;3.55;2.42;;;18.20;87.20;18.80;102295.00;;;;4894986;28;96757;-64
2022/11/12 10:20:09;;;;;;;2.35;2.13;;;18.40;87.00;19.00;102300.00;;;;4869406;28;115107;-65
2022/11/12 10:23:16;;;;;;;3.78;2.42;;;18.70;85.80;19.40;102311.00;;;;4870721;28;93527;-64
2022/11/12 10:25:45;;;;;;;2.80;2.33;;;19.00;85.00;19.60;102304.00;;;;4890858;28;99378;-65
2022/11/12 10:28:27;;;;;;;5.30;2.35;;;19.20;82.80;19.80;102300.00;;;;4872895;28;92857;-64
2022/11/12 10:31:00;;;;;;;2.92;2.13;;;19.40;81.50;19.90;102300.00;;;;4873590;28;92808;-65
2022/11/12 10:33:30;;;;;;;4.60;2.65;;;19.50;78.80;19.90;102292.00;;;;4881996;28;93764;-64
2022/11/12 10:36:32;;;;;;;2.53;1.67;;;19.60;77.20;19.90;102292.00;;;;4876494;28;92893;-63
2022/11/12 10:38:58;;;;;;;2.33;1.90;;;19.60;76.00;19.90;102295.00;;;;4874112;28;94505;-63
2022/11/12 10:41:32;;;;;;;3.58;2.00;;;19.60;74.80;19.90;102294.00;;;;4871640;28;123263;-63
2022/11/12 10:44:01;;;;;;;4.28;1.70;;;19.60;73.10;19.90;102292.00;;;;4871805;28;117698;-63
2022/11/12 10:46:33;;;;;;;3.97;1.88;;;19.60;74.30;20.10;102288.00;;;;4874827;28;92938;-64
2022/11/12 10:49:22;;;;;;;1.90;1.75;;;19.70;74.00;20.20;102280.00;;;;4872291;28;104983;-64
2022/11/12 10:51:57;;;;;;;3.85;1.85;;;19.80;71.00;20.10;102282.00;;;;4870731;28;118973;-62
2022/11/12 10:54:25;;;;;;;2.38;1.92;;;19.80;70.20;20.10;102282.00;;;;4870606;28;93397;-64
2022/11/12 10:56:52;;;;;;;1.85;1.55;;;19.80;70.80;20.30;102275.00;;;;4871091;28;109205;-63
2022/11/12 10:59:24;;;;;;;2.45;1.92;;;19.90;70.50;20.50;102282.00;;;;4878929;28;92676;-64
2022/11/12 11:01:59;;;;;;;2.53;1.85;;;20.10;71.00;20.60;102282.00;;;;4875959;28;122115;-63
2022/11/12 11:04:33;;;;;;;1.40;1.20;;;20.20;70.90;20.80;102285.00;;;;4877751;28;93956;-64
2022/11/12 11:07:05;;;;;;;1.55;1.27;;;20.40;70.70;20.90;102277.00;;;;4880046;28;102211;-63
2022/11/12 11:09:33;;;;;;;1.75;1.10;;;20.50;69.30;21.00;102268.00;;;;4894832;28;93151;-63
2022/11/12 11:11:59;;;;;;;1.42;1.10;;;20.60;66.40;21.00;102269.00;;;;4895509;28;93398;-64
2022/11/12 11:14:33;;;;;;;2.65;1.55;;;20.60;65.60;20.80;102273.00;;;;4880167;28;93629;-63
2022/11/12 11:17:07;;;;;;;1.50;1.00;;;20.50;64.10;20.70;102272.00;;;;4880285;28;93036;-64
2022/11/12 11:19:42;;;;;;;2.63;1.23;;;20.40;64.50;20.70;102269.00;;;;4882150;28;93120;-63
2022/11/12 11:22:38;;;;;;;2.10;1.30;;;20.40;64.80;20.70;102275.00;;;;4881625;28;121438;-63
2022/11/12 11:25:18;;;;;;;2.08;1.35;;;20.40;63.30;20.50;102276.00;;;;4896599;28;93138;-64
2022/11/12 11:28:00;;;;;;;2.20;1.00;;;20.20;62.00;20.50;102280.00;;;;4880602;28;94553;-64
2022/11/12 11:30:26;;;;;;;2.05;1.35;;;20.10;61.80;20.40;102272.00;;;;4893409;28;101866;-62